sensor_id;sensor_type;location;lat;lon;timestamp;pressure;altitude;pressure_sealevel;temperature;humidity
70015;BME280;57358;51.094;6.760;2023-03-16T00:00:14;101545.09;;;1.31;100.00
70015;BME280;57358;51.094;6.760;2023-03-16T00:02:42;101426.19;;;0.45;100.00
70015;BME280;57358;51.094;6.760;2023-03-16T00:05:10;101555.44;;;1.25;100.00
70015;BME280;57358;51.094;6.760;2023-03-16T00:07:38;101562.31;;;1.24;100.00
70015;BME280;57358;51.094;6.760;2023-03-16T00:10:05;101551.97;;;1.24;100.00
70015;BME280;57358;51.094;6.760;2023-03-16T00:12:35;101562.31;;;1.27;100.00
70015;BME280;57358;51.094;6.760;2023-03-16T00:15:01;101468.38;;;0.82;100.00
70015;BME280;57358;51.094;6.760;2023-03-16T00:17:29;101365.91;;;0.24;100.00
70015;BME280;57358;51.094;6.760;2023-03-16T00:19:56;101393.44;;;0.50;100.00
70015;BME280;57358;51.094;6.760;2023-03-16T00:22:26;101538.19;;;1.41;100.00
70015;BME280;57358;51.094;6.760;2023-03-16T00:24:53;101409.84;;;0.70;100.00
70015;BME280;57358;51.094;6.760;2023-03-16T00:27:22;101457.19;;;0.88;100.00
70015;BME280;57358;51.094;6.760;2023-03-16T00:29:51;101526.97;;;1.38;100.00
70015;BME280;57358;51.094;6.760;2023-03-16T00:32:26;101489.94;;;1.15;100.00
70015;BME280;57358;51.094;6.760;2023-03-16T00:34:53;101389.16;;;0.52;100.00
70015;BME280;57358;51.094;6.760;2023-03-16T00:37:21;101467.53;;;0.97;100.00
70015;BME280;57358;51.094;6.760;2023-03-16T00:39:49;101538.16;;;1.42;100.00
70015;BME280;57358;51.094;6.760;2023-03-16T00:42:16;101554.56;;;1.39;100.00
70015;BME280;57358;51.094;6.760;2023-03-16T00:44:43;101537.31;;;1.40;100.00
70015;BME280;57358;51.094;6.760;2023-03-16T00:47:11;101485.63;;;1.02;100.00
70015;BME280;57358;51.094;6.760;2023-03-16T00:49:43;101398.63;;;0.54;100.00
70015;BME280;57358;51.094;6.760;2023-03-16T00:52:11;101353.00;;;0.29;100.00
70015;BME280;57358;51.094;6.760;2023-03-16T00:54:44;101446.84;;;0.94;100.00
70015;BME280;57358;51.094;6.760;2023-03-16T00:57:14;101530.41;;;1.44;100.00
70015;BME280;57358;51.094;6.760;2023-03-16T00:59:41;101464.94;;;1.11;100.00
70015;BME280;57358;51.094;6.760;2023-03-16T01:02:08;101427.91;;;0.92;100.00
70015;BME280;57358;51.094;6.760;2023-03-16T01:04:35;101527.81;;;1.56;100.00
70015;BME280;57358;51.094;6.760;2023-03-16T01:07:03;101523.50;;;1.55;100.00
70015;BME280;57358;51.094;6.760;2023-03-16T01:09:30;101360.72;;;0.64;100.00
70015;BME280;57358;51.094;6.760;2023-03-16T01:12:11;101513.13;;;1.58;100.00
70015;BME280;57358;51.094;6.760;2023-03-16T01:14:40;101445.94;;;1.24;100.00
70015;BME280;57358;51.094;6.760;2023-03-16T01:17:08;101419.28;;;1.13;100.00
70015;BME280;57358;51.094;6.760;2023-03-16T01:19:36;101467.50;;;1.45;100.00
70015;BME280;57358;51.094;6.760;2023-03-16T01:22:04;101486.38;;;1.68;100.00
70015;BME280;57358;51.094;6.760;2023-03-16T01:24:32;101450.25;;;1.47;100.00
70015;BME280;57358;51.094;6.760;2023-03-16T01:26:59;101272.97;;;0.44;100.00
70015;BME280;57358;51.094;6.760;2023-03-16T01:29:26;101482.94;;;1.71;100.00
70015;BME280;57358;51.094;6.760;2023-03-16T01:31:52;101393.44;;;1.13;100.00
70015;BME280;57358;51.094;6.760;2023-03-16T01:34:21;101468.28;;;1.71;100.00
70015;BME280;57358;51.094;6.760;2023-03-16T01:36:48;101463.97;;;1.69;100.00
70015;BME280;57358;51.094;6.760;2023-03-16T01:39:19;101473.44;;;1.68;100.00
70015;BME280;57358;51.094;6.760;2023-03-16T01:41:46;101417.50;;;1.30;100.00
70015;BME280;57358;51.094;6.760;2023-03-16T01:44:15;101473.41;;;1.74;100.00
70015;BME280;57358;51.094;6.760;2023-03-16T01:46:42;101457.91;;;1.70;100.00
70015;BME280;57358;51.094;6.760;2023-03-16T01:49:20;101446.72;;;1.68;100.00
70015;BME280;57358;51.094;6.760;2023-03-16T01:54:23;101444.13;;;1.66;100.00
70015;BME280;57358;51.094;6.760;2023-03-16T01:57:10;101443.28;;;1.69;100.00
70015;BME280;57358;51.094;6.760;2023-03-16T01:59:41;101344.31;;;1.02;100.00
70015;BME280;57358;51.094;6.760;2023-03-16T02:02:10;101276.38;;;0.69;100.00
70015;BME280;57358;51.094;6.760;2023-03-16T02:05:01;101442.41;;;1.64;100.00
70015;BME280;57358;51.094;6.760;2023-03-16T02:07:33;101155.16;;;-0.09;100.00
70015;BME280;57358;51.094;6.760;2023-03-16T02:10:03;101321.09;;;0.90;100.00
70015;BME280;57358;51.094;6.760;2023-03-16T02:12:30;101377.00;;;1.20;100.00
70015;BME280;57358;51.094;6.760;2023-03-16T02:14:56;101401.16;;;1.24;100.00
70015;BME280;57358;51.094;6.760;2023-03-16T02:17:26;101314.22;;;0.87;100.00
70015;BME280;57358;51.094;6.760;2023-03-16T02:22:47;101419.16;;;1.56;100.00
70015;BME280;57358;51.094;6.760;2023-03-16T02:25:16;101361.53;;;1.15;100.00
70015;BME280;57358;51.094;6.760;2023-03-16T02:27:59;101401.03;;;1.56;100.00
70015;BME280;57358;51.094;6.760;2023-03-16T02:30:29;101402.78;;;1.52;100.00
70015;BME280;57358;51.094;6.760;2023-03-16T02:32:56;101293.56;;;0.75;100.00
70015;BME280;57358;51.094;6.760;2023-03-16T02:35:22;101395.03;;;1.48;100.00
70015;BME280;57358;51.094;6.760;2023-03-16T02:38:25;101390.72;;;1.48;100.00
70015;BME280;57358;51.094;6.760;2023-03-16T02:41:14;101387.28;;;1.49;100.00
70015;BME280;57358;51.094;6.760;2023-03-16T02:43:47;101344.25;;;1.30;100.00
70015;BME280;57358;51.094;6.760;2023-03-16T02:46:19;101374.31;;;1.52;100.00
70015;BME280;57358;51.094;6.760;2023-03-16T02:48:57;101261.66;;;0.90;100.00
70015;BME280;57358;51.094;6.760;2023-03-16T02:51:25;101232.44;;;0.78;100.00
70015;BME280;57358;51.094;6.760;2023-03-16T02:53:51;101370.84;;;1.59;100.00
70015;BME280;57358;51.094;6.760;2023-03-16T02:56:18;101208.38;;;0.63;100.00
70015;BME280;57358;51.094;6.760;2023-03-16T02:58:44;101370.84;;;1.63;100.00
70015;BME280;57358;51.094;6.760;2023-03-16T03:01:11;101336.44;;;1.45;100.00
70015;BME280;57358;51.094;6.760;2023-03-16T03:03:37;101366.50;;;1.69;100.00
70015;BME280;57358;51.094;6.760;2023-03-16T03:06:04;101271.88;;;1.22;100.00
70015;BME280;57358;51.094;6.760;2023-03-16T03:08:31;101106.06;;;0.26;100.00
70015;BME280;57358;51.094;6.760;2023-03-16T03:10:58;101220.31;;;0.91;100.00
70015;BME280;57358;51.094;6.760;2023-03-16T03:13:24;101232.31;;;1.11;100.00
70015;BME280;57358;51.094;6.760;2023-03-16T03:15:51;101344.03;;;1.79;100.00
70015;BME280;57358;51.094;6.760;2023-03-16T03:18:18;100946.34;;;-0.49;100.00
70015;BME280;57358;51.094;6.760;2023-03-16T03:20:44;101228.81;;;1.19;100.00
70015;BME280;57358;51.094;6.760;2023-03-16T03:23:11;101308.72;;;1.64;100.00
70015;BME280;57358;51.094;6.760;2023-03-16T03:25:37;101150.63;;;0.70;100.00
70015;BME280;57358;51.094;6.760;2023-03-16T03:28:04;101337.16;;;1.76;100.00
70015;BME280;57358;51.094;6.760;2023-03-16T03:30:31;101332.84;;;1.77;100.00
70015;BME280;57358;51.094;6.760;2023-03-16T03:32:57;101318.28;;;1.54;100.00
70015;BME280;57358;51.094;6.760;2023-03-16T03:35:24;101276.94;;;1.45;100.00
70015;BME280;57358;51.094;6.760;2023-03-16T03:37:50;101322.47;;;1.74;100.00
70015;BME280;57358;51.094;6.760;2023-03-16T03:40:19;101325.97;;;1.73;100.00
70015;BME280;57358;51.094;6.760;2023-03-16T03:42:45;101168.69;;;0.77;100.00
70015;BME280;57358;51.094;6.760;2023-03-16T03:45:13;101295.88;;;1.52;100.00
70015;BME280;57358;51.094;6.760;2023-03-16T03:47:40;101327.66;;;1.74;100.00
70015;BME280;57358;51.094;6.760;2023-03-16T03:50:11;101271.84;;;1.33;100.00
70015;BME280;57358;51.094;6.760;2023-03-16T03:52:39;101311.38;;;1.56;100.00
70015;BME280;57358;51.094;6.760;2023-03-16T03:55:06;101226.28;;;1.04;100.00
70015;BME280;57358;51.094;6.760;2023-03-16T03:57:32;101201.31;;;1.02;100.00
70015;BME280;57358;51.094;6.760;2023-03-16T03:59:59;101319.03;;;1.72;100.00
70015;BME280;57358;51.094;6.760;2023-03-16T04:02:25;101332.78;;;1.80;100.00
70015;BME280;57358;51.094;6.760;2023-03-16T04:04:52;101339.72;;;1.81;100.00
70015;BME280;57358;51.094;6.760;2023-03-16T04:07:19;101252.00;;;1.30;100.00
70015;BME280;57358;51.094;6.760;2023-03-16T04:09:45;101297.53;;;1.64;100.00
70015;BME280;57358;51.094;6.760;2023-03-16T04:12:12;101320.72;;;1.85;100.00
70015;BME280;57358;51.094;6.760;2023-03-16T04:14:38;101260.53;;;1.46;100.00
70015;BME280;57358;51.094;6.760;2023-03-16T04:17:05;101234.75;;;1.34;99.15
70015;BME280;57358;51.094;6.760;2023-03-16T04:19:31;101266.53;;;1.61;98.96
70015;BME280;57358;51.094;6.760;2023-03-16T04:21:58;101172.84;;;1.08;98.42
70015;BME280;57358;51.094;6.760;2023-03-16T04:24:24;101169.41;;;1.10;98.42
70015;BME280;57358;51.094;6.760;2023-03-16T04:26:51;101169.50;;;0.95;98.09
70015;BME280;57358;51.094;6.760;2023-03-16T04:29:19;101293.09;;;1.86;98.22
70015;BME280;57358;51.094;6.760;2023-03-16T04:31:46;101260.44;;;1.66;97.88
70015;BME280;57358;51.094;6.760;2023-03-16T04:34:13;101274.16;;;1.79;97.95
70015;BME280;57358;51.094;6.760;2023-03-16T04:36:40;101296.53;;;1.89;98.12
70015;BME280;57358;51.094;6.760;2023-03-16T04:39:07;101284.44;;;1.90;98.48
70015;BME280;57358;51.094;6.760;2023-03-16T04:41:35;101046.53;;;0.54;97.92
70015;BME280;57358;51.094;6.760;2023-03-16T04:44:02;101281.84;;;1.93;97.29
70015;BME280;57358;51.094;6.760;2023-03-16T04:46:30;101238.88;;;1.67;97.35
70015;BME280;57358;51.094;6.760;2023-03-16T04:48:57;101177.88;;;1.34;97.87
70015;BME280;57358;51.094;6.760;2023-03-16T04:51:24;101160.75;;;1.17;97.61
70015;BME280;57358;51.094;6.760;2023-03-16T04:53:51;101142.69;;;1.08;97.73
70015;BME280;57358;51.094;6.760;2023-03-16T04:56:17;101266.31;;;1.90;97.87
70015;BME280;57358;51.094;6.760;2023-03-16T04:58:48;101284.38;;;1.94;98.15
70015;BME280;57358;51.094;6.760;2023-03-16T05:01:15;101278.38;;;1.94;97.64
70015;BME280;57358;51.094;6.760;2023-03-16T05:03:42;101251.72;;;1.78;98.23
70015;BME280;57358;51.094;6.760;2023-03-16T05:06:10;101089.41;;;0.86;97.63
70015;BME280;57358;51.094;6.760;2023-03-16T05:08:37;101270.59;;;1.98;98.78
70015;BME280;57358;51.094;6.760;2023-03-16T05:11:03;101285.28;;;1.95;98.86
70015;BME280;57358;51.094;6.760;2023-03-16T05:13:30;101219.06;;;1.60;98.44
70015;BME280;57358;51.094;6.760;2023-03-16T05:15:57;101195.06;;;1.41;99.10
70015;BME280;57358;51.094;6.760;2023-03-16T05:18:23;101079.13;;;0.79;99.11
70015;BME280;57358;51.094;6.760;2023-03-16T05:20:51;101278.31;;;2.02;99.37
70015;BME280;57358;51.094;6.760;2023-03-16T05:23:19;101279.16;;;2.02;99.08
70015;BME280;57358;51.094;6.760;2023-03-16T05:25:49;101217.31;;;1.67;99.57
70015;BME280;57358;51.094;6.760;2023-03-16T05:28:15;101285.22;;;2.01;99.41
70015;BME280;57358;51.094;6.760;2023-03-16T05:30:42;101288.66;;;2.03;99.89
70015;BME280;57358;51.094;6.760;2023-03-16T05:33:10;101287.78;;;2.07;99.19
70015;BME280;57358;51.094;6.760;2023-03-16T05:35:36;101137.44;;;1.24;99.81
70015;BME280;57358;51.094;6.760;2023-03-16T05:38:03;101283.47;;;2.03;100.00
70015;BME280;57358;51.094;6.760;2023-03-16T05:40:30;101220.78;;;1.66;99.63
70015;BME280;57358;51.094;6.760;2023-03-16T05:42:58;101154.66;;;1.26;100.00
70015;BME280;57358;51.094;6.760;2023-03-16T05:45:28;101290.41;;;2.03;100.00
70015;BME280;57358;51.094;6.760;2023-03-16T05:47:55;101179.59;;;1.35;100.00
70015;BME280;57358;51.094;6.760;2023-03-16T05:50:21;101228.53;;;1.67;100.00
70015;BME280;57358;51.094;6.760;2023-03-16T05:52:48;101304.16;;;2.09;100.00
70015;BME280;57358;51.094;6.760;2023-03-16T05:55:16;101292.94;;;2.09;100.00
70015;BME280;57358;51.094;6.760;2023-03-16T05:57:42;101261.97;;;1.90;100.00
70015;BME280;57358;51.094;6.760;2023-03-16T06:00:12;101140.09;;;1.14;100.00
70015;BME280;57358;51.094;6.760;2023-03-16T06:02:47;101301.47;;;2.20;100.00
70015;BME280;57358;51.094;6.760;2023-03-16T06:05:15;101258.59;;;1.87;100.00
70015;BME280;57358;51.094;6.760;2023-03-16T06:07:41;101085.06;;;0.97;100.00
70015;BME280;57358;51.094;6.760;2023-03-16T06:10:09;101263.56;;;2.13;100.00
70015;BME280;57358;51.094;6.760;2023-03-16T06:12:36;101298.75;;;2.35;100.00
70015;BME280;57358;51.094;6.760;2023-03-16T06:15:04;101237.72;;;2.05;100.00
70015;BME280;57358;51.094;6.760;2023-03-16T06:17:36;101304.72;;;2.47;99.94
70015;BME280;57358;51.094;6.760;2023-03-16T06:20:04;101071.09;;;1.18;99.75
70015;BME280;57358;51.094;6.760;2023-03-16T06:22:37;101296.84;;;2.57;98.58
70015;BME280;57358;51.094;6.760;2023-03-16T06:25:06;101255.63;;;2.33;98.81
70015;BME280;57358;51.094;6.760;2023-03-16T06:27:33;101264.97;;;2.48;97.75
70015;BME280;57358;51.094;6.760;2023-03-16T06:30:03;101127.56;;;1.72;97.53
70015;BME280;57358;51.094;6.760;2023-03-16T06:32:30;101266.66;;;2.50;97.06
70015;BME280;57358;51.094;6.760;2023-03-16T06:34:57;101244.22;;;2.51;96.21
70015;BME280;57358;51.094;6.760;2023-03-16T06:37:27;101263.88;;;2.70;96.48
70015;BME280;57358;51.094;6.760;2023-03-16T06:39:53;101208.09;;;2.37;95.80
70015;BME280;57358;51.094;6.760;2023-03-16T06:42:20;101292.16;;;2.92;95.36
70015;BME280;57358;51.094;6.760;2023-03-16T06:44:46;101247.53;;;2.62;94.66
70015;BME280;57358;51.094;6.760;2023-03-16T06:47:13;101287.88;;;2.91;93.64
70015;BME280;57358;51.094;6.760;2023-03-16T06:49:39;101128.16;;;2.05;92.89
70015;BME280;57358;51.094;6.760;2023-03-16T06:52:06;101273.94;;;2.98;93.04
70015;BME280;57358;51.094;6.760;2023-03-16T06:54:32;101267.91;;;2.96;92.51
70015;BME280;57358;51.094;6.760;2023-03-16T06:57:00;101218.00;;;2.78;92.22
70015;BME280;57358;51.094;6.760;2023-03-16T06:59:26;101241.22;;;2.88;92.82
70015;BME280;57358;51.094;6.760;2023-03-16T07:01:53;100725.41;;;-0.36;90.90
70015;BME280;57358;51.094;6.760;2023-03-16T07:04:19;101272.88;;;3.14;90.88
70015;BME280;57358;51.094;6.760;2023-03-16T07:06:47;101230.69;;;3.02;91.43
70015;BME280;57358;51.094;6.760;2023-03-16T07:09:13;101258.13;;;3.21;90.69
70015;BME280;57358;51.094;6.760;2023-03-16T07:11:40;101102.00;;;2.28;90.34
70015;BME280;57358;51.094;6.760;2023-03-16T07:14:06;101294.00;;;3.53;89.73
70015;BME280;57358;51.094;6.760;2023-03-16T07:16:32;101273.41;;;3.41;88.92
70015;BME280;57358;51.094;6.760;2023-03-16T07:18:59;101220.97;;;3.19;89.17
70015;BME280;57358;51.094;6.760;2023-03-16T07:21:25;101298.94;;;3.72;88.96
70015;BME280;57358;51.094;6.760;2023-03-16T07:23:52;101169.53;;;2.87;87.77
70015;BME280;57358;51.094;6.760;2023-03-16T07:26:19;101272.16;;;3.70;87.96
70015;BME280;57358;51.094;6.760;2023-03-16T07:28:45;101171.63;;;3.22;85.89
70015;BME280;57358;51.094;6.760;2023-03-16T07:31:11;101279.75;;;3.84;85.37
70015;BME280;57358;51.094;6.760;2023-03-16T07:33:39;101225.47;;;3.67;84.48
70015;BME280;57358;51.094;6.760;2023-03-16T07:36:06;101221.06;;;3.72;84.78
70015;BME280;57358;51.094;6.760;2023-03-16T07:38:36;101203.72;;;3.74;83.75
70015;BME280;57358;51.094;6.760;2023-03-16T07:41:03;101215.66;;;3.87;82.87
70015;BME280;57358;51.094;6.760;2023-03-16T07:43:29;101191.28;;;3.93;82.69
70015;BME280;57358;51.094;6.760;2023-03-16T07:45:56;101165.19;;;4.00;81.24
70015;BME280;57358;51.094;6.760;2023-03-16T07:48:22;101120.44;;;3.88;80.75
70015;BME280;57358;51.094;6.760;2023-03-16T07:50:49;101232.63;;;4.56;79.67
70015;BME280;57358;51.094;6.760;2023-03-16T07:53:16;101042.22;;;3.56;78.98
70015;BME280;57358;51.094;6.760;2023-03-16T07:55:43;101131.31;;;4.07;78.72
70015;BME280;57358;51.094;6.760;2023-03-16T07:58:10;101238.25;;;4.78;78.62
70015;BME280;57358;51.094;6.760;2023-03-16T08:00:37;101243.22;;;4.91;78.90
70015;BME280;57358;51.094;6.760;2023-03-16T08:03:04;101236.25;;;4.93;77.88
70015;BME280;57358;51.094;6.760;2023-03-16T08:05:30;101156.50;;;4.51;78.50
70015;BME280;57358;51.094;6.760;2023-03-16T08:08:00;101184.00;;;4.63;78.68
70015;BME280;57358;51.094;6.760;2023-03-16T08:10:27;101214.25;;;5.09;77.12
70015;BME280;57358;51.094;6.760;2023-03-16T08:12:54;101254.31;;;5.41;76.21
70015;BME280;57358;51.094;6.760;2023-03-16T08:15:22;101209.09;;;5.45;75.73
70015;BME280;57358;51.094;6.760;2023-03-16T08:17:48;101050.50;;;4.64;75.32
70015;BME280;57358;51.094;6.760;2023-03-16T08:20:15;101151.72;;;5.12;75.42
70015;BME280;57358;51.094;6.760;2023-03-16T08:22:42;101223.06;;;5.43;75.97
70015;BME280;57358;51.094;6.760;2023-03-16T08:25:11;101182.25;;;5.43;74.08
70015;BME280;57358;51.094;6.760;2023-03-16T08:27:38;101134.44;;;5.11;74.71
70015;BME280;57358;51.094;6.760;2023-03-16T08:30:06;101184.53;;;5.57;73.45
70015;BME280;57358;51.094;6.760;2023-03-16T08:32:37;101188.53;;;5.72;73.90
70015;BME280;57358;51.094;6.760;2023-03-16T08:35:11;101157.47;;;5.64;73.52
70015;BME280;57358;51.094;6.760;2023-03-16T08:37:40;101129.25;;;5.47;73.20
70015;BME280;57358;51.094;6.760;2023-03-16T08:40:08;101098.22;;;5.39;73.02
70015;BME280;57358;51.094;6.760;2023-03-16T08:42:38;101173.69;;;5.75;73.66
70015;BME280;57358;51.094;6.760;2023-03-16T08:45:06;101042.63;;;5.06;72.56
70015;BME280;57358;51.094;6.760;2023-03-16T08:47:39;101103.44;;;5.38;73.34
70015;BME280;57358;51.094;6.760;2023-03-16T08:50:06;100975.56;;;4.44;73.42
70015;BME280;57358;51.094;6.760;2023-03-16T08:52:33;101168.75;;;5.63;74.52
70015;BME280;57358;51.094;6.760;2023-03-16T08:55:02;101196.88;;;5.86;74.45
70015;BME280;57358;51.094;6.760;2023-03-16T08:57:33;101190.63;;;5.93;74.02
70015;BME280;57358;51.094;6.760;2023-03-16T08:59:59;101097.09;;;5.50;73.12
70015;BME280;57358;51.094;6.760;2023-03-16T09:02:27;101064.47;;;5.35;73.21
70015;BME280;57358;51.094;6.760;2023-03-16T09:04:54;101085.69;;;5.54;73.06
70015;BME280;57358;51.094;6.760;2023-03-16T09:07:21;101191.53;;;6.27;72.17
70015;BME280;57358;51.094;6.760;2023-03-16T09:09:47;100975.88;;;5.05;72.61
70015;BME280;57358;51.094;6.760;2023-03-16T09:12:14;101133.03;;;6.06;72.28
70015;BME280;57358;51.094;6.760;2023-03-16T09:14:41;101173.00;;;6.37;71.36
70015;BME280;57358;51.094;6.760;2023-03-16T09:17:07;101174.41;;;6.49;71.40
70015;BME280;57358;51.094;6.760;2023-03-16T09:19:34;101020.06;;;5.75;70.60
70015;BME280;57358;51.094;6.760;2023-03-16T09:22:17;101170.91;;;6.82;70.56
70015;BME280;57358;51.094;6.760;2023-03-16T09:24:44;101163.53;;;7.24;69.74
70015;BME280;57358;51.094;6.760;2023-03-16T09:27:11;101031.78;;;6.81;68.07
70015;BME280;57358;51.094;6.760;2023-03-16T09:29:38;101074.00;;;7.22;67.77
70015;BME280;57358;51.094;6.760;2023-03-16T09:32:07;101081.94;;;7.46;66.28
70015;BME280;57358;51.094;6.760;2023-03-16T09:34:33;101047.63;;;7.30;66.21
70015;BME280;57358;51.094;6.760;2023-03-16T09:37:00;100953.59;;;6.79;65.63
70015;BME280;57358;51.094;6.760;2023-03-16T09:39:27;101074.56;;;7.32;65.89
70015;BME280;57358;51.094;6.760;2023-03-16T09:41:58;101007.34;;;7.12;66.16
70015;BME280;57358;51.094;6.760;2023-03-16T09:47:03;101050.75;;;7.66;65.56
70015;BME280;57358;51.094;6.760;2023-03-16T09:49:35;101009.97;;;7.37;65.54
70015;BME280;57358;51.094;6.760;2023-03-16T09:54:58;101025.41;;;7.70;65.34
70015;BME280;57358;51.094;6.760;2023-03-16T09:57:29;101055.94;;;7.68;65.36
70015;BME280;57358;51.094;6.760;2023-03-16T10:00:15;100991.69;;;7.37;65.25
70015;BME280;57358;51.094;6.760;2023-03-16T10:05:39;100969.72;;;6.91;66.89
70015;BME280;57358;51.094;6.760;2023-03-16T10:08:19;101075.59;;;7.53;66.96
70015;BME280;57358;51.094;6.760;2023-03-16T10:14:06;100873.69;;;6.50;66.00
70015;BME280;57358;51.094;6.760;2023-03-16T10:16:40;101049.53;;;7.76;65.60
70015;BME280;57358;51.094;6.760;2023-03-16T10:19:21;101049.63;;;7.98;65.29
70015;BME280;57358;51.094;6.760;2023-03-16T10:21:53;101079.78;;;8.32;65.35
70015;BME280;57358;51.094;6.760;2023-03-16T10:27:05;100984.16;;;8.25;63.79
70015;BME280;57358;51.094;6.760;2023-03-16T10:29:34;100966.09;;;8.19;63.27
70015;BME280;57358;51.094;6.760;2023-03-16T10:32:13;101002.50;;;8.71;62.35
70015;BME280;57358;51.094;6.760;2023-03-16T10:34:42;100923.53;;;8.37;61.48
70015;BME280;57358;51.094;6.760;2023-03-16T10:37:12;100967.19;;;8.59;61.72
70015;BME280;57358;51.094;6.760;2023-03-16T10:39:39;100897.47;;;8.14;61.70
70015;BME280;57358;51.094;6.760;2023-03-16T10:42:17;100979.78;;;8.71;61.78
70015;BME280;57358;51.094;6.760;2023-03-16T10:44:44;100828.38;;;7.97;61.92
70015;BME280;57358;51.094;6.760;2023-03-16T10:47:23;101003.00;;;9.23;61.58
70015;BME280;57358;51.094;6.760;2023-03-16T10:49:53;100900.41;;;8.72;61.31
70015;BME280;57358;51.094;6.760;2023-03-16T10:52:28;100939.31;;;9.23;60.47
70015;BME280;57358;51.094;6.760;2023-03-16T10:55:05;100906.88;;;9.25;59.48
70015;BME280;57358;51.094;6.760;2023-03-16T10:57:35;100828.47;;;9.02;58.64
70015;BME280;57358;51.094;6.760;2023-03-16T11:02:38;100879.53;;;9.32;59.00
70015;BME280;57358;51.094;6.760;2023-03-16T11:08:12;100892.38;;;9.57;58.85
70015;BME280;57358;51.094;6.760;2023-03-16T11:10:43;100849.25;;;9.65;57.80
70015;BME280;57358;51.094;6.760;2023-03-16T11:13:21;100907.59;;;10.25;57.59
70015;BME280;57358;51.094;6.760;2023-03-16T11:15:54;100843.94;;;10.22;56.55
70015;BME280;57358;51.094;6.760;2023-03-16T11:18:36;100851.16;;;10.54;56.32
70015;BME280;57358;51.094;6.760;2023-03-16T11:21:13;100843.19;;;10.73;55.88
70015;BME280;57358;51.094;6.760;2023-03-16T11:23:47;100763.66;;;10.19;55.54
70015;BME280;57358;51.094;6.760;2023-03-16T11:26:32;100753.88;;;10.23;55.48
70015;BME280;57358;51.094;6.760;2023-03-16T11:29:15;100762.81;;;10.18;55.81
70015;BME280;57358;51.094;6.760;2023-03-16T11:31:53;100752.41;;;9.81;56.68
70015;BME280;57358;51.094;6.760;2023-03-16T11:34:27;100777.56;;;10.02;56.55
70015;BME280;57358;51.094;6.760;2023-03-16T11:37:01;100846.03;;;10.51;56.70
70015;BME280;57358;51.094;6.760;2023-03-16T11:39:37;100649.91;;;9.87;55.55
70015;BME280;57358;51.094;6.760;2023-03-16T11:45:22;100736.69;;;10.34;55.95
70015;BME280;57358;51.094;6.760;2023-03-16T11:59:13;100778.38;;;11.25;54.56
70015;BME280;57358;51.094;6.760;2023-03-16T12:09:57;100611.53;;;11.17;53.24
70015;BME280;57358;51.094;6.760;2023-03-16T12:15:22;100634.66;;;11.73;51.91
70015;BME280;57358;51.094;6.760;2023-03-16T12:17:56;100665.69;;;11.66;53.54
70015;BME280;57358;51.094;6.760;2023-03-16T12:20:29;100530.75;;;10.75;53.28
70015;BME280;57358;51.094;6.760;2023-03-16T12:23:02;100634.38;;;11.31;53.83
70015;BME280;57358;51.094;6.760;2023-03-16T12:25:35;100594.31;;;10.80;54.15
70015;BME280;57358;51.094;6.760;2023-03-16T12:28:05;100525.91;;;10.51;54.01
70015;BME280;57358;51.094;6.760;2023-03-16T12:30:47;100664.72;;;11.37;54.05
70015;BME280;57358;51.094;6.760;2023-03-16T12:39:13;100580.78;;;10.88;54.06
70015;BME280;57358;51.094;6.760;2023-03-16T12:41:57;100647.25;;;11.36;53.89
70015;BME280;57358;51.094;6.760;2023-03-16T12:50:05;100559.97;;;10.85;54.77
70015;BME280;57358;51.094;6.760;2023-03-16T12:55:19;100623.59;;;11.52;53.86
70015;BME280;57358;51.094;6.760;2023-03-16T12:57:48;100578.41;;;11.15;54.11
70015;BME280;57358;51.094;6.760;2023-03-16T13:00:17;100516.28;;;11.14;53.15
70015;BME280;57358;51.094;6.760;2023-03-16T13:02:49;100593.34;;;11.45;53.94
70015;BME280;57358;51.094;6.760;2023-03-16T13:05:29;100531.56;;;11.07;54.32
70015;BME280;57358;51.094;6.760;2023-03-16T13:10:35;100630.00;;;11.62;54.90
70015;BME280;57358;51.094;6.760;2023-03-16T13:13:13;100539.50;;;11.22;54.24
70015;BME280;57358;51.094;6.760;2023-03-16T13:15:44;100561.31;;;11.38;54.12
70015;BME280;57358;51.094;6.760;2023-03-16T13:20:54;100546.31;;;11.40;53.82
70015;BME280;57358;51.094;6.760;2023-03-16T13:23:27;100608.84;;;11.49;54.54
70015;BME280;57358;51.094;6.760;2023-03-16T13:28:43;100564.94;;;11.51;53.52
70015;BME280;57358;51.094;6.760;2023-03-16T13:31:26;100639.78;;;11.90;53.78
70015;BME280;57358;51.094;6.760;2023-03-16T13:33:55;100507.94;;;11.52;52.85
70015;BME280;57358;51.094;6.760;2023-03-16T13:36:27;100532.88;;;11.61;53.24
70015;BME280;57358;51.094;6.760;2023-03-16T13:39:13;100515.28;;;11.91;52.48
70015;BME280;57358;51.094;6.760;2023-03-16T13:41:40;100463.56;;;11.62;52.37
70015;BME280;57358;51.094;6.760;2023-03-16T13:44:13;100571.75;;;12.29;52.30
70015;BME280;57358;51.094;6.760;2023-03-16T13:46:40;100437.50;;;11.73;52.01
70015;BME280;57358;51.094;6.760;2023-03-16T13:49:10;100428.75;;;11.72;51.79
70015;BME280;57358;51.094;6.760;2023-03-16T13:51:37;100469.81;;;11.89;52.41
70015;BME280;57358;51.094;6.760;2023-03-16T13:54:06;100436.44;;;11.75;52.66
70015;BME280;57358;51.094;6.760;2023-03-16T13:56:42;100508.78;;;12.26;51.96
70015;BME280;57358;51.094;6.760;2023-03-16T13:59:09;100409.34;;;11.89;51.60
70015;BME280;57358;51.094;6.760;2023-03-16T14:01:36;100458.59;;;12.14;51.75
70015;BME280;57358;51.094;6.760;2023-03-16T14:04:09;100412.13;;;12.15;51.05
70015;BME280;57358;51.094;6.760;2023-03-16T14:06:38;100481.00;;;12.63;50.74
70015;BME280;57358;51.094;6.760;2023-03-16T14:09:16;100393.66;;;12.29;50.49
70015;BME280;57358;51.094;6.760;2023-03-16T14:11:46;100456.50;;;12.75;50.55
70015;BME280;57358;51.094;6.760;2023-03-16T14:14:15;100357.91;;;12.40;49.71
70015;BME280;57358;51.094;6.760;2023-03-16T14:16:45;100407.31;;;12.89;49.22
70015;BME280;57358;51.094;6.760;2023-03-16T14:19:16;100384.66;;;12.86;49.26